Sinclair, Illinois
Current Conditions -  °F | °C
As of 9:55 PM on Sunday 23 Nov 2014 (Local Time) from KIJX Reporting Station
Haze Haze  
Wind Chill: 52°   Ceiling: 200
Heat Index: 52°   Visibility: 2.5mi
Dew Point: 51°   Wind: 8mph
Humidity: 96%   Direction: 220°SW
Pressure: 29.21"   Gusts: NA
Location:  39.7413°N, 90.2138°W
Report Text: KIJX 240355Z AUTO 22007KT 2 1/2SM BR OVC002 11/11 A2921 RMK AO2 P0001 T01130107
Loading
Personal Weather Stations






























Interactive Weather Map New forecast layout! Learn more

10-Day Weather Forecast

Advertisements
Track Severe Weather on mobile